sensor_id;sensor_type;location;lat;lon;timestamp;P1;durP1;ratioP1;P2;durP2;ratioP2
21438;SDS011;10880;50.302;18.736;2023-03-01T00:01:10;151.60;;;48.73;;
21438;SDS011;10880;50.302;18.736;2023-03-01T00:03:41;113.37;;;34.43;;
21438;SDS011;10880;50.302;18.736;2023-03-01T00:06:08;83.40;;;26.77;;
21438;SDS011;10880;50.302;18.736;2023-03-01T00:08:35;109.30;;;34.57;;
21438;SDS011;10880;50.302;18.736;2023-03-01T00:11:10;221.83;;;64.20;;
21438;SDS011;10880;50.302;18.736;2023-03-01T00:13:49;156.90;;;43.47;;
21438;SDS011;10880;50.302;18.736;2023-03-01T00:16:21;142.77;;;40.30;;
21438;SDS011;10880;50.302;18.736;2023-03-01T00:18:49;163.43;;;47.40;;
21438;SDS011;10880;50.302;18.736;2023-03-01T00:21:16;163.93;;;45.53;;
21438;SDS011;10880;50.302;18.736;2023-03-01T00:23:43;163.23;;;47.00;;
21438;SDS011;10880;50.302;18.736;2023-03-01T00:26:11;166.20;;;50.93;;
21438;SDS011;10880;50.302;18.736;2023-03-01T00:28:40;200.93;;;57.20;;
21438;SDS011;10880;50.302;18.736;2023-03-01T00:31:08;184.77;;;59.10;;
21438;SDS011;10880;50.302;18.736;2023-03-01T00:33:38;142.03;;;44.67;;
21438;SDS011;10880;50.302;18.736;2023-03-01T00:36:05;104.17;;;31.33;;
21438;SDS011;10880;50.302;18.736;2023-03-01T00:38:35;85.40;;;26.73;;
21438;SDS011;10880;50.302;18.736;2023-03-01T00:41:07;69.13;;;23.17;;
21438;SDS011;10880;50.302;18.736;2023-03-01T00:43:35;113.90;;;36.73;;
21438;SDS011;10880;50.302;18.736;2023-03-01T00:46:05;156.00;;;47.97;;
21438;SDS011;10880;50.302;18.736;2023-03-01T00:48:36;144.13;;;44.30;;
21438;SDS011;10880;50.302;18.736;2023-03-01T00:53:33;169.93;;;54.93;;
21438;SDS011;10880;50.302;18.736;2023-03-01T00:56:01;107.47;;;36.07;;
21438;SDS011;10880;50.302;18.736;2023-03-01T00:58:28;81.40;;;26.93;;
21438;SDS011;10880;50.302;18.736;2023-03-01T01:00:55;95.87;;;31.77;;
21438;SDS011;10880;50.302;18.736;2023-03-01T01:03:23;122.90;;;41.00;;
21438;SDS011;10880;50.302;18.736;2023-03-01T01:05:51;82.40;;;28.90;;
21438;SDS011;10880;50.302;18.736;2023-03-01T01:08:18;102.30;;;31.90;;
21438;SDS011;10880;50.302;18.736;2023-03-01T01:10:46;166.00;;;54.10;;
21438;SDS011;10880;50.302;18.736;2023-03-01T01:13:13;138.87;;;44.90;;
21438;SDS011;10880;50.302;18.736;2023-03-01T01:15:40;174.57;;;53.83;;
21438;SDS011;10880;50.302;18.736;2023-03-01T01:18:06;173.50;;;55.03;;
21438;SDS011;10880;50.302;18.736;2023-03-01T01:20:34;148.13;;;47.60;;
21438;SDS011;10880;50.302;18.736;2023-03-01T01:23:05;172.77;;;53.10;;
21438;SDS011;10880;50.302;18.736;2023-03-01T01:25:34;107.17;;;35.83;;
21438;SDS011;10880;50.302;18.736;2023-03-01T01:28:01;73.00;;;26.63;;
21438;SDS011;10880;50.302;18.736;2023-03-01T01:30:28;63.90;;;22.20;;
21438;SDS011;10880;50.302;18.736;2023-03-01T01:32:55;93.03;;;31.57;;
21438;SDS011;10880;50.302;18.736;2023-03-01T01:35:21;102.07;;;34.30;;
21438;SDS011;10880;50.302;18.736;2023-03-01T01:37:48;77.13;;;26.27;;
21438;SDS011;10880;50.302;18.736;2023-03-01T01:40:14;85.77;;;30.00;;
21438;SDS011;10880;50.302;18.736;2023-03-01T01:42:41;158.20;;;50.60;;
21438;SDS011;10880;50.302;18.736;2023-03-01T01:47:57;141.67;;;47.70;;
21438;SDS011;10880;50.302;18.736;2023-03-01T01:50:26;115.37;;;38.00;;
21438;SDS011;10880;50.302;18.736;2023-03-01T01:52:53;92.83;;;31.83;;
21438;SDS011;10880;50.302;18.736;2023-03-01T01:55:22;153.30;;;50.00;;
21438;SDS011;10880;50.302;18.736;2023-03-01T01:57:53;176.80;;;60.23;;
21438;SDS011;10880;50.302;18.736;2023-03-01T02:00:25;130.27;;;42.03;;
21438;SDS011;10880;50.302;18.736;2023-03-01T02:03:04;86.80;;;30.73;;
21438;SDS011;10880;50.302;18.736;2023-03-01T02:05:55;67.87;;;23.80;;
21438;SDS011;10880;50.302;18.736;2023-03-01T02:08:27;109.07;;;36.47;;
21438;SDS011;10880;50.302;18.736;2023-03-01T02:10:56;129.03;;;45.87;;
21438;SDS011;10880;50.302;18.736;2023-03-01T02:13:25;86.13;;;31.20;;
21438;SDS011;10880;50.302;18.736;2023-03-01T02:15:54;135.40;;;46.60;;
21438;SDS011;10880;50.302;18.736;2023-03-01T02:18:21;148.83;;;51.37;;
21438;SDS011;10880;50.302;18.736;2023-03-01T02:23:24;138.97;;;49.10;;
21438;SDS011;10880;50.302;18.736;2023-03-01T02:28:50;92.63;;;34.70;;
21438;SDS011;10880;50.302;18.736;2023-03-01T02:31:18;79.27;;;27.07;;
21438;SDS011;10880;50.302;18.736;2023-03-01T02:34:04;56.57;;;21.77;;
21438;SDS011;10880;50.302;18.736;2023-03-01T02:39:17;41.97;;;15.80;;
21438;SDS011;10880;50.302;18.736;2023-03-01T02:41:50;51.90;;;20.20;;
21438;SDS011;10880;50.302;18.736;2023-03-01T02:44:19;93.77;;;33.30;;
21438;SDS011;10880;50.302;18.736;2023-03-01T02:46:48;107.17;;;36.77;;
21438;SDS011;10880;50.302;18.736;2023-03-01T02:49:22;83.40;;;30.37;;
21438;SDS011;10880;50.302;18.736;2023-03-01T02:57:45;123.63;;;40.50;;
21438;SDS011;10880;50.302;18.736;2023-03-01T03:00:21;99.70;;;31.77;;
21438;SDS011;10880;50.302;18.736;2023-03-01T03:02:51;79.37;;;25.43;;
21438;SDS011;10880;50.302;18.736;2023-03-01T03:05:25;60.00;;;21.20;;
21438;SDS011;10880;50.302;18.736;2023-03-01T03:07:58;69.80;;;23.70;;
21438;SDS011;10880;50.302;18.736;2023-03-01T03:10:31;86.70;;;29.20;;
21438;SDS011;10880;50.302;18.736;2023-03-01T03:13:03;128.47;;;41.43;;
21438;SDS011;10880;50.302;18.736;2023-03-01T03:15:37;89.00;;;29.73;;
21438;SDS011;10880;50.302;18.736;2023-03-01T03:18:06;72.77;;;24.33;;
21438;SDS011;10880;50.302;18.736;2023-03-01T03:20:35;62.97;;;20.83;;
21438;SDS011;10880;50.302;18.736;2023-03-01T03:23:03;99.30;;;31.60;;
21438;SDS011;10880;50.302;18.736;2023-03-01T03:25:30;125.13;;;41.60;;
21438;SDS011;10880;50.302;18.736;2023-03-01T03:27:56;147.70;;;47.20;;
21438;SDS011;10880;50.302;18.736;2023-03-01T03:30:27;141.80;;;46.80;;
21438;SDS011;10880;50.302;18.736;2023-03-01T03:32:56;143.97;;;45.87;;
21438;SDS011;10880;50.302;18.736;2023-03-01T03:35:27;113.37;;;38.27;;
21438;SDS011;10880;50.302;18.736;2023-03-01T03:37:57;85.03;;;30.43;;
21438;SDS011;10880;50.302;18.736;2023-03-01T03:40:37;73.13;;;24.50;;
21438;SDS011;10880;50.302;18.736;2023-03-01T03:43:06;73.83;;;25.63;;
21438;SDS011;10880;50.302;18.736;2023-03-01T03:45:37;112.83;;;37.43;;
21438;SDS011;10880;50.302;18.736;2023-03-01T03:48:04;160.63;;;51.50;;
21438;SDS011;10880;50.302;18.736;2023-03-01T03:50:33;169.57;;;54.47;;
21438;SDS011;10880;50.302;18.736;2023-03-01T03:53:05;114.83;;;37.87;;
21438;SDS011;10880;50.302;18.736;2023-03-01T03:55:38;76.57;;;27.30;;
21438;SDS011;10880;50.302;18.736;2023-03-01T03:58:05;66.57;;;23.17;;
21438;SDS011;10880;50.302;18.736;2023-03-01T04:00:36;51.53;;;18.57;;
21438;SDS011;10880;50.302;18.736;2023-03-01T04:03:03;48.83;;;16.13;;
21438;SDS011;10880;50.302;18.736;2023-03-01T04:05:30;42.50;;;15.80;;
21438;SDS011;10880;50.302;18.736;2023-03-01T04:07:57;42.57;;;14.80;;
21438;SDS011;10880;50.302;18.736;2023-03-01T04:10:30;49.07;;;17.53;;
21438;SDS011;10880;50.302;18.736;2023-03-01T04:13:02;41.73;;;14.70;;
21438;SDS011;10880;50.302;18.736;2023-03-01T04:15:30;68.63;;;22.87;;
21438;SDS011;10880;50.302;18.736;2023-03-01T04:17:58;117.50;;;36.87;;
21438;SDS011;10880;50.302;18.736;2023-03-01T04:20:26;98.97;;;34.47;;
21438;SDS011;10880;50.302;18.736;2023-03-01T04:22:59;86.87;;;28.03;;
21438;SDS011;10880;50.302;18.736;2023-03-01T04:25:46;52.23;;;19.23;;
21438;SDS011;10880;50.302;18.736;2023-03-01T04:28:23;49.03;;;17.30;;
21438;SDS011;10880;50.302;18.736;2023-03-01T04:31:01;63.03;;;22.73;;
21438;SDS011;10880;50.302;18.736;2023-03-01T04:33:41;64.23;;;23.10;;
21438;SDS011;10880;50.302;18.736;2023-03-01T04:36:13;51.97;;;18.40;;
21438;SDS011;10880;50.302;18.736;2023-03-01T04:38:41;46.77;;;16.83;;
21438;SDS011;10880;50.302;18.736;2023-03-01T04:41:09;69.07;;;24.17;;
21438;SDS011;10880;50.302;18.736;2023-03-01T04:43:39;74.27;;;26.17;;
21438;SDS011;10880;50.302;18.736;2023-03-01T04:46:07;97.10;;;34.17;;
21438;SDS011;10880;50.302;18.736;2023-03-01T04:48:36;110.87;;;37.03;;
21438;SDS011;10880;50.302;18.736;2023-03-01T04:51:09;76.03;;;25.87;;
21438;SDS011;10880;50.302;18.736;2023-03-01T04:53:39;57.97;;;19.80;;
21438;SDS011;10880;50.302;18.736;2023-03-01T04:56:06;83.80;;;27.13;;
21438;SDS011;10880;50.302;18.736;2023-03-01T04:58:32;153.60;;;47.77;;
21438;SDS011;10880;50.302;18.736;2023-03-01T05:00:59;107.97;;;35.27;;
21438;SDS011;10880;50.302;18.736;2023-03-01T05:03:25;79.47;;;25.60;;
21438;SDS011;10880;50.302;18.736;2023-03-01T05:05:54;96.30;;;33.57;;
21438;SDS011;10880;50.302;18.736;2023-03-01T05:08:25;120.53;;;41.33;;
21438;SDS011;10880;50.302;18.736;2023-03-01T05:10:52;128.87;;;43.50;;
21438;SDS011;10880;50.302;18.736;2023-03-01T05:13:20;72.80;;;27.13;;
21438;SDS011;10880;50.302;18.736;2023-03-01T05:15:54;127.00;;;40.73;;
21438;SDS011;10880;50.302;18.736;2023-03-01T05:18:25;125.10;;;42.90;;
21438;SDS011;10880;50.302;18.736;2023-03-01T05:20:54;85.70;;;29.13;;
21438;SDS011;10880;50.302;18.736;2023-03-01T05:23:24;60.87;;;22.47;;
21438;SDS011;10880;50.302;18.736;2023-03-01T05:25:51;55.70;;;20.17;;
21438;SDS011;10880;50.302;18.736;2023-03-01T05:28:18;39.90;;;16.13;;
21438;SDS011;10880;50.302;18.736;2023-03-01T05:30:46;47.60;;;16.07;;
21438;SDS011;10880;50.302;18.736;2023-03-01T05:33:12;37.87;;;15.73;;
21438;SDS011;10880;50.302;18.736;2023-03-01T05:35:43;91.60;;;31.90;;
21438;SDS011;10880;50.302;18.736;2023-03-01T05:38:12;82.10;;;29.00;;
21438;SDS011;10880;50.302;18.736;2023-03-01T05:40:42;108.63;;;40.07;;
21438;SDS011;10880;50.302;18.736;2023-03-01T05:43:13;133.37;;;45.40;;
21438;SDS011;10880;50.302;18.736;2023-03-01T05:45:40;102.93;;;35.27;;
21438;SDS011;10880;50.302;18.736;2023-03-01T05:48:08;98.87;;;35.30;;
21438;SDS011;10880;50.302;18.736;2023-03-01T05:50:37;99.87;;;36.37;;
21438;SDS011;10880;50.302;18.736;2023-03-01T05:53:07;117.30;;;37.87;;
21438;SDS011;10880;50.302;18.736;2023-03-01T05:55:43;98.27;;;34.13;;
21438;SDS011;10880;50.302;18.736;2023-03-01T05:58:13;92.57;;;31.90;;
21438;SDS011;10880;50.302;18.736;2023-03-01T06:00:42;63.10;;;23.63;;
21438;SDS011;10880;50.302;18.736;2023-03-01T06:03:11;51.43;;;18.27;;
21438;SDS011;10880;50.302;18.736;2023-03-01T06:05:39;40.07;;;14.93;;
21438;SDS011;10880;50.302;18.736;2023-03-01T06:08:09;40.97;;;15.57;;
21438;SDS011;10880;50.302;18.736;2023-03-01T06:10:36;42.03;;;15.57;;
21438;SDS011;10880;50.302;18.736;2023-03-01T06:13:03;76.67;;;25.67;;
21438;SDS011;10880;50.302;18.736;2023-03-01T06:15:30;96.90;;;31.30;;
21438;SDS011;10880;50.302;18.736;2023-03-01T06:17:56;95.43;;;32.23;;
21438;SDS011;10880;50.302;18.736;2023-03-01T06:20:26;95.57;;;34.10;;
21438;SDS011;10880;50.302;18.736;2023-03-01T06:22:53;105.27;;;34.97;;
21438;SDS011;10880;50.302;18.736;2023-03-01T06:25:24;80.63;;;26.03;;
21438;SDS011;10880;50.302;18.736;2023-03-01T06:27:54;62.00;;;21.20;;
21438;SDS011;10880;50.302;18.736;2023-03-01T06:30:21;112.53;;;35.90;;
21438;SDS011;10880;50.302;18.736;2023-03-01T06:32:49;95.70;;;32.20;;
21438;SDS011;10880;50.302;18.736;2023-03-01T06:35:16;76.20;;;25.00;;
21438;SDS011;10880;50.302;18.736;2023-03-01T06:37:46;57.90;;;20.17;;
21438;SDS011;10880;50.302;18.736;2023-03-01T06:40:13;55.23;;;19.43;;
21438;SDS011;10880;50.302;18.736;2023-03-01T06:42:42;44.43;;;16.40;;
21438;SDS011;10880;50.302;18.736;2023-03-01T06:45:13;39.43;;;14.83;;
21438;SDS011;10880;50.302;18.736;2023-03-01T06:47:40;40.27;;;15.33;;
21438;SDS011;10880;50.302;18.736;2023-03-01T06:50:07;54.17;;;19.90;;
21438;SDS011;10880;50.302;18.736;2023-03-01T06:52:37;49.93;;;18.77;;
21438;SDS011;10880;50.302;18.736;2023-03-01T06:55:03;42.37;;;17.90;;
21438;SDS011;10880;50.302;18.736;2023-03-01T06:57:31;43.33;;;16.33;;
21438;SDS011;10880;50.302;18.736;2023-03-01T06:59:57;52.03;;;18.80;;
21438;SDS011;10880;50.302;18.736;2023-03-01T07:02:24;47.73;;;18.40;;
21438;SDS011;10880;50.302;18.736;2023-03-01T07:04:51;43.13;;;17.57;;
21438;SDS011;10880;50.302;18.736;2023-03-01T07:07:18;42.10;;;16.50;;
21438;SDS011;10880;50.302;18.736;2023-03-01T07:09:45;44.97;;;17.33;;
21438;SDS011;10880;50.302;18.736;2023-03-01T07:12:12;49.23;;;19.17;;
21438;SDS011;10880;50.302;18.736;2023-03-01T07:14:38;62.60;;;21.67;;
21438;SDS011;10880;50.302;18.736;2023-03-01T07:17:05;51.93;;;19.03;;
21438;SDS011;10880;50.302;18.736;2023-03-01T07:19:32;50.57;;;18.70;;
21438;SDS011;10880;50.302;18.736;2023-03-01T07:21:59;57.07;;;20.50;;
21438;SDS011;10880;50.302;18.736;2023-03-01T07:24:25;58.30;;;19.53;;
21438;SDS011;10880;50.302;18.736;2023-03-01T07:26:52;60.90;;;20.87;;
21438;SDS011;10880;50.302;18.736;2023-03-01T07:29:19;54.10;;;19.80;;
21438;SDS011;10880;50.302;18.736;2023-03-01T07:31:45;54.90;;;19.03;;
21438;SDS011;10880;50.302;18.736;2023-03-01T07:34:12;171.00;;;53.30;;
21438;SDS011;10880;50.302;18.736;2023-03-01T07:36:39;104.13;;;34.63;;
21438;SDS011;10880;50.302;18.736;2023-03-01T07:39:09;152.43;;;50.73;;
21438;SDS011;10880;50.302;18.736;2023-03-01T07:41:36;170.53;;;60.60;;
21438;SDS011;10880;50.302;18.736;2023-03-01T07:44:03;155.63;;;56.40;;
21438;SDS011;10880;50.302;18.736;2023-03-01T07:46:30;134.03;;;49.87;;
21438;SDS011;10880;50.302;18.736;2023-03-01T07:48:57;109.23;;;41.93;;
21438;SDS011;10880;50.302;18.736;2023-03-01T07:51:24;73.57;;;28.70;;
21438;SDS011;10880;50.302;18.736;2023-03-01T07:53:50;56.53;;;22.67;;
21438;SDS011;10880;50.302;18.736;2023-03-01T07:56:17;55.60;;;21.30;;
21438;SDS011;10880;50.302;18.736;2023-03-01T07:58:44;41.87;;;17.40;;
21438;SDS011;10880;50.302;18.736;2023-03-01T08:01:12;165.53;;;59.73;;
21438;SDS011;10880;50.302;18.736;2023-03-01T08:03:40;115.00;;;43.70;;
21438;SDS011;10880;50.302;18.736;2023-03-01T08:06:12;105.83;;;37.50;;
21438;SDS011;10880;50.302;18.736;2023-03-01T08:08:42;78.97;;;30.63;;
21438;SDS011;10880;50.302;18.736;2023-03-01T08:11:13;63.30;;;23.23;;
21438;SDS011;10880;50.302;18.736;2023-03-01T08:13:42;123.63;;;47.00;;
21438;SDS011;10880;50.302;18.736;2023-03-01T08:16:13;87.97;;;35.03;;
21438;SDS011;10880;50.302;18.736;2023-03-01T08:18:41;69.00;;;28.03;;
21438;SDS011;10880;50.302;18.736;2023-03-01T08:21:12;53.33;;;22.17;;
21438;SDS011;10880;50.302;18.736;2023-03-01T08:23:41;44.13;;;18.50;;
21438;SDS011;10880;50.302;18.736;2023-03-01T08:26:13;59.00;;;24.13;;
21438;SDS011;10880;50.302;18.736;2023-03-01T08:28:44;46.90;;;18.87;;
21438;SDS011;10880;50.302;18.736;2023-03-01T08:31:22;53.90;;;21.50;;
21438;SDS011;10880;50.302;18.736;2023-03-01T08:33:49;54.70;;;22.43;;
21438;SDS011;10880;50.302;18.736;2023-03-01T08:36:21;44.97;;;18.70;;
21438;SDS011;10880;50.302;18.736;2023-03-01T08:38:49;129.73;;;48.20;;
21438;SDS011;10880;50.302;18.736;2023-03-01T08:41:16;137.73;;;51.70;;
21438;SDS011;10880;50.302;18.736;2023-03-01T08:43:42;95.73;;;37.43;;
21438;SDS011;10880;50.302;18.736;2023-03-01T08:46:09;64.80;;;27.37;;
21438;SDS011;10880;50.302;18.736;2023-03-01T08:48:37;47.07;;;21.20;;
21438;SDS011;10880;50.302;18.736;2023-03-01T08:51:14;37.93;;;17.07;;
21438;SDS011;10880;50.302;18.736;2023-03-01T08:53:42;73.03;;;30.43;;
21438;SDS011;10880;50.302;18.736;2023-03-01T08:56:10;71.83;;;29.10;;
21438;SDS011;10880;50.302;18.736;2023-03-01T08:58:37;45.77;;;20.20;;
21438;SDS011;10880;50.302;18.736;2023-03-01T09:01:09;34.90;;;15.93;;
21438;SDS011;10880;50.302;18.736;2023-03-01T09:03:36;42.03;;;18.27;;
21438;SDS011;10880;50.302;18.736;2023-03-01T09:06:04;55.63;;;22.83;;
21438;SDS011;10880;50.302;18.736;2023-03-01T09:08:33;41.00;;;17.27;;
21438;SDS011;10880;50.302;18.736;2023-03-01T09:11:04;47.73;;;20.27;;
21438;SDS011;10880;50.302;18.736;2023-03-01T09:13:32;45.13;;;19.63;;
21438;SDS011;10880;50.302;18.736;2023-03-01T09:16:03;37.07;;;15.27;;
21438;SDS011;10880;50.302;18.736;2023-03-01T09:18:31;64.23;;;24.00;;
21438;SDS011;10880;50.302;18.736;2023-03-01T09:21:13;47.17;;;18.43;;
21438;SDS011;10880;50.302;18.736;2023-03-01T09:23:44;30.40;;;12.40;;
21438;SDS011;10880;50.302;18.736;2023-03-01T09:26:16;34.00;;;14.80;;
21438;SDS011;10880;50.302;18.736;2023-03-01T09:28:45;29.40;;;12.93;;
21438;SDS011;10880;50.302;18.736;2023-03-01T09:31:13;23.23;;;11.27;;
21438;SDS011;10880;50.302;18.736;2023-03-01T09:33:41;19.23;;;10.00;;
21438;SDS011;10880;50.302;18.736;2023-03-01T09:36:16;24.33;;;11.43;;
21438;SDS011;10880;50.302;18.736;2023-03-01T09:38:44;44.27;;;19.57;;
21438;SDS011;10880;50.302;18.736;2023-03-01T09:43:53;27.93;;;12.63;;
21438;SDS011;10880;50.302;18.736;2023-03-01T09:46:31;27.53;;;12.70;;
21438;SDS011;10880;50.302;18.736;2023-03-01T09:49:03;23.70;;;10.63;;
21438;SDS011;10880;50.302;18.736;2023-03-01T09:51:33;23.63;;;12.60;;
21438;SDS011;10880;50.302;18.736;2023-03-01T09:54:04;28.03;;;13.57;;
21438;SDS011;10880;50.302;18.736;2023-03-01T09:56:36;23.53;;;11.50;;
21438;SDS011;10880;50.302;18.736;2023-03-01T10:05:03;17.13;;;8.70;;
21438;SDS011;10880;50.302;18.736;2023-03-01T10:07:49;18.80;;;9.43;;
21438;SDS011;10880;50.302;18.736;2023-03-01T10:10:39;18.50;;;9.47;;
21438;SDS011;10880;50.302;18.736;2023-03-01T10:15:44;12.80;;;6.87;;
21438;SDS011;10880;50.302;18.736;2023-03-01T10:18:16;40.77;;;18.57;;
21438;SDS011;10880;50.302;18.736;2023-03-01T10:20:47;38.13;;;18.93;;
21438;SDS011;10880;50.302;18.736;2023-03-01T10:23:19;33.37;;;16.07;;
21438;SDS011;10880;50.302;18.736;2023-03-01T10:28:31;30.33;;;14.07;;
21438;SDS011;10880;50.302;18.736;2023-03-01T10:31:02;29.37;;;13.80;;
21438;SDS011;10880;50.302;18.736;2023-03-01T10:33:30;35.60;;;17.60;;
21438;SDS011;10880;50.302;18.736;2023-03-01T10:36:01;33.10;;;15.97;;
21438;SDS011;10880;50.302;18.736;2023-03-01T10:38:29;24.07;;;12.13;;
21438;SDS011;10880;50.302;18.736;2023-03-01T10:40:58;20.83;;;10.97;;
21438;SDS011;10880;50.302;18.736;2023-03-01T10:51:42;17.23;;;9.67;;
21438;SDS011;10880;50.302;18.736;2023-03-01T10:54:15;16.07;;;8.53;;
21438;SDS011;10880;50.302;18.736;2023-03-01T10:56:47;13.57;;;8.30;;
21438;SDS011;10880;50.302;18.736;2023-03-01T10:59:31;23.13;;;12.03;;
21438;SDS011;10880;50.302;18.736;2023-03-01T11:04:35;17.50;;;9.33;;
21438;SDS011;10880;50.302;18.736;2023-03-01T11:07:02;14.10;;;7.80;;
21438;SDS011;10880;50.302;18.736;2023-03-01T11:09:32;12.70;;;7.00;;
21438;SDS011;10880;50.302;18.736;2023-03-01T11:12:13;11.83;;;7.50;;
21438;SDS011;10880;50.302;18.736;2023-03-01T11:14:48;14.17;;;7.70;;
21438;SDS011;10880;50.302;18.736;2023-03-01T11:17:25;15.00;;;8.67;;
21438;SDS011;10880;50.302;18.736;2023-03-01T11:22:46;12.83;;;7.30;;
21438;SDS011;10880;50.302;18.736;2023-03-01T11:25:15;13.07;;;6.77;;
21438;SDS011;10880;50.302;18.736;2023-03-01T11:27:46;11.90;;;7.17;;
21438;SDS011;10880;50.302;18.736;2023-03-01T11:35:34;10.17;;;6.00;;
21438;SDS011;10880;50.302;18.736;2023-03-01T11:40:46;11.03;;;7.10;;
21438;SDS011;10880;50.302;18.736;2023-03-01T11:46:08;16.07;;;8.67;;
21438;SDS011;10880;50.302;18.736;2023-03-01T11:48:50;19.33;;;9.43;;
21438;SDS011;10880;50.302;18.736;2023-03-01T11:51:36;12.83;;;7.40;;
21438;SDS011;10880;50.302;18.736;2023-03-01T12:03:14;12.07;;;7.70;;
21438;SDS011;10880;50.302;18.736;2023-03-01T12:08:43;11.10;;;6.70;;
21438;SDS011;10880;50.302;18.736;2023-03-01T12:14:08;12.73;;;7.60;;
21438;SDS011;10880;50.302;18.736;2023-03-01T12:22:31;9.93;;;5.67;;
21438;SDS011;10880;50.302;18.736;2023-03-01T12:30:28;13.73;;;7.00;;
21438;SDS011;10880;50.302;18.736;2023-03-01T12:38:50;12.07;;;6.87;;
21438;SDS011;10880;50.302;18.736;2023-03-01T12:50:47;11.93;;;6.13;;
21438;SDS011;10880;50.302;18.736;2023-03-01T12:53:28;12.63;;;6.63;;
21438;SDS011;10880;50.302;18.736;2023-03-01T12:56:26;9.30;;;5.40;;
21438;SDS011;10880;50.302;18.736;2023-03-01T13:05:16;10.87;;;5.60;;
21438;SDS011;10880;50.302;18.736;2023-03-01T13:08:18;7.93;;;5.33;;
21438;SDS011;10880;50.302;18.736;2023-03-01T13:11:02;10.83;;;6.23;;
21438;SDS011;10880;50.302;18.736;2023-03-01T13:13:31;13.43;;;7.37;;
21438;SDS011;10880;50.302;18.736;2023-03-01T13:15:58;11.50;;;6.50;;
21438;SDS011;10880;50.302;18.736;2023-03-01T13:21:33;10.73;;;5.90;;
21438;SDS011;10880;50.302;18.736;2023-03-01T13:24:00;8.20;;;5.33;;
21438;SDS011;10880;50.302;18.736;2023-03-01T13:26:28;10.27;;;5.77;;
21438;SDS011;10880;50.302;18.736;2023-03-01T13:28:54;10.37;;;6.20;;
21438;SDS011;10880;50.302;18.736;2023-03-01T13:33:52;17.33;;;9.00;;
21438;SDS011;10880;50.302;18.736;2023-03-01T13:38:58;15.00;;;8.97;;
21438;SDS011;10880;50.302;18.736;2023-03-01T13:49:35;19.27;;;9.47;;
21438;SDS011;10880;50.302;18.736;2023-03-01T13:52:15;15.23;;;8.87;;
21438;SDS011;10880;50.302;18.736;2023-03-01T13:57:41;12.13;;;6.83;;
21438;SDS011;10880;50.302;18.736;2023-03-01T14:03:03;14.07;;;7.13;;
21438;SDS011;10880;50.302;18.736;2023-03-01T14:05:36;12.23;;;6.97;;
21438;SDS011;10880;50.302;18.736;2023-03-01T14:08:05;11.37;;;6.30;;
21438;SDS011;10880;50.302;18.736;2023-03-01T14:10:35;11.87;;;6.27;;
21438;SDS011;10880;50.302;18.736;2023-03-01T14:19:03;6.87;;;4.23;;
21438;SDS011;10880;50.302;18.736;2023-03-01T14:21:43;9.80;;;5.63;;
21438;SDS011;10880;50.302;18.736;2023-03-01T14:24:22;10.80;;;6.10;;
21438;SDS011;10880;50.302;18.736;2023-03-01T14:26:49;15.87;;;8.57;;
21438;SDS011;10880;50.302;18.736;2023-03-01T14:29:54;16.97;;;8.33;;
21438;SDS011;10880;50.302;18.736;2023-03-01T14:32:17;13.83;;;7.10;;
21438;SDS011;10880;50.302;18.736;2023-03-01T14:34:50;10.70;;;6.03;;
21438;SDS011;10880;50.302;18.736;2023-03-01T14:37:34;9.40;;;5.90;;
21438;SDS011;10880;50.302;18.736;2023-03-01T14:40:03;12.40;;;6.80;;
21438;SDS011;10880;50.302;18.736;2023-03-01T14:42:31;12.47;;;6.83;;
21438;SDS011;10880;50.302;18.736;2023-03-01T14:45:02;11.33;;;6.67;;
21438;SDS011;10880;50.302;18.736;2023-03-01T14:47:32;11.23;;;6.10;;
21438;SDS011;10880;50.302;18.736;2023-03-01T14:52:31;10.57;;;5.93;;
21438;SDS011;10880;50.302;18.736;2023-03-01T14:55:15;12.13;;;6.30;;
21438;SDS011;10880;50.302;18.736;2023-03-01T14:58:11;11.57;;;6.20;;
21438;SDS011;10880;50.302;18.736;2023-03-01T15:00:44;9.53;;;5.07;;
21438;SDS011;10880;50.302;18.736;2023-03-01T15:06:05;14.57;;;7.17;;
21438;SDS011;10880;50.302;18.736;2023-03-01T15:08:33;16.23;;;8.90;;
21438;SDS011;10880;50.302;18.736;2023-03-01T15:13:34;12.77;;;6.53;;
21438;SDS011;10880;50.302;18.736;2023-03-01T15:16:02;11.00;;;5.53;;
21438;SDS011;10880;50.302;18.736;2023-03-01T15:18:43;8.03;;;4.90;;
21438;SDS011;10880;50.302;18.736;2023-03-01T15:21:15;12.47;;;7.10;;
21438;SDS011;10880;50.302;18.736;2023-03-01T15:23:49;16.07;;;7.50;;
21438;SDS011;10880;50.302;18.736;2023-03-01T15:26:22;10.23;;;6.27;;
21438;SDS011;10880;50.302;18.736;2023-03-01T15:28:51;10.60;;;6.10;;
21438;SDS011;10880;50.302;18.736;2023-03-01T15:34:10;9.87;;;5.13;;
21438;SDS011;10880;50.302;18.736;2023-03-01T15:37:00;9.23;;;5.40;;
21438;SDS011;10880;50.302;18.736;2023-03-01T15:39:36;11.77;;;5.80;;
21438;SDS011;10880;50.302;18.736;2023-03-01T15:44:38;13.57;;;6.97;;
21438;SDS011;10880;50.302;18.736;2023-03-01T15:47:25;9.00;;;5.23;;
21438;SDS011;10880;50.302;18.736;2023-03-01T15:49:54;7.90;;;4.80;;
21438;SDS011;10880;50.302;18.736;2023-03-01T15:55:04;7.57;;;4.40;;
21438;SDS011;10880;50.302;18.736;2023-03-01T15:57:40;8.17;;;4.43;;
21438;SDS011;10880;50.302;18.736;2023-03-01T16:00:09;7.10;;;4.53;;
21438;SDS011;10880;50.302;18.736;2023-03-01T16:02:37;6.50;;;4.53;;
21438;SDS011;10880;50.302;18.736;2023-03-01T16:05:04;7.73;;;5.00;;
21438;SDS011;10880;50.302;18.736;2023-03-01T16:07:31;7.63;;;4.67;;
21438;SDS011;10880;50.302;18.736;2023-03-01T16:09:58;6.97;;;4.47;;
21438;SDS011;10880;50.302;18.736;2023-03-01T16:12:24;7.80;;;4.70;;
21438;SDS011;10880;50.302;18.736;2023-03-01T16:14:51;9.70;;;5.10;;
21438;SDS011;10880;50.302;18.736;2023-03-01T16:17:18;10.13;;;5.60;;
21438;SDS011;10880;50.302;18.736;2023-03-01T16:19:45;10.83;;;5.63;;
21438;SDS011;10880;50.302;18.736;2023-03-01T16:22:12;10.97;;;5.80;;
21438;SDS011;10880;50.302;18.736;2023-03-01T16:24:38;9.70;;;5.13;;
21438;SDS011;10880;50.302;18.736;2023-03-01T16:27:06;10.53;;;5.20;;
21438;SDS011;10880;50.302;18.736;2023-03-01T16:29:33;12.23;;;5.67;;
21438;SDS011;10880;50.302;18.736;2023-03-01T16:32:02;11.20;;;6.03;;
21438;SDS011;10880;50.302;18.736;2023-03-01T16:34:29;11.20;;;5.87;;
21438;SDS011;10880;50.302;18.736;2023-03-01T16:36:55;10.33;;;5.80;;
21438;SDS011;10880;50.302;18.736;2023-03-01T16:39:21;12.30;;;5.87;;
21438;SDS011;10880;50.302;18.736;2023-03-01T16:41:48;12.67;;;6.77;;
21438;SDS011;10880;50.302;18.736;2023-03-01T16:44:14;13.53;;;6.40;;
21438;SDS011;10880;50.302;18.736;2023-03-01T16:46:41;15.23;;;7.00;;
21438;SDS011;10880;50.302;18.736;2023-03-01T16:49:09;13.93;;;6.90;;
21438;SDS011;10880;50.302;18.736;2023-03-01T16:51:35;18.20;;;7.53;;
21438;SDS011;10880;50.302;18.736;2023-03-01T16:54:02;14.60;;;7.40;;
21438;SDS011;10880;50.302;18.736;2023-03-01T16:56:30;16.27;;;8.10;;
21438;SDS011;10880;50.302;18.736;2023-03-01T16:58:58;19.00;;;8.97;;